sensor_id;sensor_type;location;lat;lon;timestamp;P1;durP1;ratioP1;P2;durP2;ratioP2
17668;SDS011;8953;48.694;8.940;2022-07-05T00:01:30;3.70;;;2.70;;
17668;SDS011;8953;48.694;8.940;2022-07-05T00:03:57;3.53;;;2.70;;
17668;SDS011;8953;48.694;8.940;2022-07-05T00:06:25;3.60;;;2.30;;
17668;SDS011;8953;48.694;8.940;2022-07-05T00:08:52;3.53;;;2.80;;
17668;SDS011;8953;48.694;8.940;2022-07-05T00:11:19;3.13;;;2.90;;
17668;SDS011;8953;48.694;8.940;2022-07-05T00:13:46;3.60;;;2.63;;
17668;SDS011;8953;48.694;8.940;2022-07-05T00:16:15;3.37;;;2.50;;
17668;SDS011;8953;48.694;8.940;2022-07-05T00:18:42;3.03;;;2.70;;
17668;SDS011;8953;48.694;8.940;2022-07-05T00:21:09;4.97;;;2.80;;
17668;SDS011;8953;48.694;8.940;2022-07-05T00:23:37;4.40;;;2.60;;
17668;SDS011;8953;48.694;8.940;2022-07-05T00:26:04;2.83;;;2.63;;
17668;SDS011;8953;48.694;8.940;2022-07-05T00:28:31;2.37;;;2.23;;
17668;SDS011;8953;48.694;8.940;2022-07-05T00:30:58;3.00;;;2.70;;
17668;SDS011;8953;48.694;8.940;2022-07-05T00:33:27;2.80;;;2.60;;
17668;SDS011;8953;48.694;8.940;2022-07-05T00:35:54;2.20;;;2.10;;
17668;SDS011;8953;48.694;8.940;2022-07-05T00:38:21;3.13;;;2.60;;
17668;SDS011;8953;48.694;8.940;2022-07-05T00:40:49;4.00;;;2.60;;
17668;SDS011;8953;48.694;8.940;2022-07-05T00:43:16;2.87;;;2.60;;
17668;SDS011;8953;48.694;8.940;2022-07-05T00:45:43;2.97;;;2.77;;
17668;SDS011;8953;48.694;8.940;2022-07-05T00:48:10;3.30;;;3.00;;
17668;SDS011;8953;48.694;8.940;2022-07-05T00:50:39;3.43;;;3.03;;
17668;SDS011;8953;48.694;8.940;2022-07-05T00:53:08;3.30;;;2.60;;
17668;SDS011;8953;48.694;8.940;2022-07-05T00:55:35;2.63;;;2.43;;
17668;SDS011;8953;48.694;8.940;2022-07-05T00:58:02;3.40;;;3.03;;
17668;SDS011;8953;48.694;8.940;2022-07-05T01:00:29;3.83;;;2.90;;
17668;SDS011;8953;48.694;8.940;2022-07-05T01:02:57;3.77;;;3.07;;
17668;SDS011;8953;48.694;8.940;2022-07-05T01:05:24;4.73;;;3.00;;
17668;SDS011;8953;48.694;8.940;2022-07-05T01:07:53;3.07;;;2.77;;
17668;SDS011;8953;48.694;8.940;2022-07-05T01:10:20;3.70;;;3.13;;
17668;SDS011;8953;48.694;8.940;2022-07-05T01:12:48;3.60;;;2.90;;
17668;SDS011;8953;48.694;8.940;2022-07-05T01:15:15;3.50;;;2.97;;
17668;SDS011;8953;48.694;8.940;2022-07-05T01:17:43;3.20;;;2.90;;
17668;SDS011;8953;48.694;8.940;2022-07-05T01:20:13;3.50;;;3.03;;
17668;SDS011;8953;48.694;8.940;2022-07-05T01:22:52;3.77;;;3.40;;
17668;SDS011;8953;48.694;8.940;2022-07-05T01:25:20;4.67;;;3.60;;
17668;SDS011;8953;48.694;8.940;2022-07-05T01:27:48;3.60;;;2.90;;
17668;SDS011;8953;48.694;8.940;2022-07-05T01:30:16;3.83;;;3.43;;
17668;SDS011;8953;48.694;8.940;2022-07-05T01:32:43;3.70;;;3.40;;
17668;SDS011;8953;48.694;8.940;2022-07-05T01:35:11;3.30;;;3.10;;
17668;SDS011;8953;48.694;8.940;2022-07-05T01:37:40;3.17;;;2.87;;
17668;SDS011;8953;48.694;8.940;2022-07-05T01:40:09;3.43;;;3.23;;
17668;SDS011;8953;48.694;8.940;2022-07-05T01:42:36;2.80;;;2.60;;
17668;SDS011;8953;48.694;8.940;2022-07-05T01:45:05;3.27;;;3.00;;
17668;SDS011;8953;48.694;8.940;2022-07-05T01:47:35;4.53;;;3.37;;
17668;SDS011;8953;48.694;8.940;2022-07-05T01:50:04;5.13;;;3.57;;
17668;SDS011;8953;48.694;8.940;2022-07-05T01:52:32;4.00;;;3.00;;
17668;SDS011;8953;48.694;8.940;2022-07-05T01:55:02;4.17;;;3.50;;
17668;SDS011;8953;48.694;8.940;2022-07-05T01:57:32;3.90;;;3.17;;
17668;SDS011;8953;48.694;8.940;2022-07-05T01:59:59;3.33;;;3.03;;
17668;SDS011;8953;48.694;8.940;2022-07-05T02:02:26;2.97;;;2.77;;
17668;SDS011;8953;48.694;8.940;2022-07-05T02:04:53;3.80;;;3.10;;
17668;SDS011;8953;48.694;8.940;2022-07-05T02:07:21;3.53;;;3.30;;
17668;SDS011;8953;48.694;8.940;2022-07-05T02:09:48;4.00;;;3.30;;
17668;SDS011;8953;48.694;8.940;2022-07-05T02:12:15;3.73;;;3.37;;
17668;SDS011;8953;48.694;8.940;2022-07-05T02:14:43;3.40;;;3.10;;
17668;SDS011;8953;48.694;8.940;2022-07-05T02:17:10;4.50;;;3.77;;
17668;SDS011;8953;48.694;8.940;2022-07-05T02:19:37;3.73;;;3.43;;
17668;SDS011;8953;48.694;8.940;2022-07-05T02:22:05;3.40;;;3.10;;
17668;SDS011;8953;48.694;8.940;2022-07-05T02:24:32;3.23;;;2.80;;
17668;SDS011;8953;48.694;8.940;2022-07-05T02:27:00;7.43;;;3.63;;
17668;SDS011;8953;48.694;8.940;2022-07-05T02:29:30;4.27;;;3.40;;
17668;SDS011;8953;48.694;8.940;2022-07-05T02:32:01;3.33;;;3.03;;
17668;SDS011;8953;48.694;8.940;2022-07-05T02:34:28;3.07;;;2.77;;
17668;SDS011;8953;48.694;8.940;2022-07-05T02:36:56;3.57;;;3.00;;
17668;SDS011;8953;48.694;8.940;2022-07-05T02:39:23;3.27;;;2.80;;
17668;SDS011;8953;48.694;8.940;2022-07-05T02:41:50;2.93;;;2.73;;
17668;SDS011;8953;48.694;8.940;2022-07-05T02:44:17;3.20;;;2.90;;
17668;SDS011;8953;48.694;8.940;2022-07-05T02:46:46;3.23;;;2.73;;
17668;SDS011;8953;48.694;8.940;2022-07-05T02:49:14;3.53;;;3.30;;
17668;SDS011;8953;48.694;8.940;2022-07-05T02:51:41;3.50;;;3.30;;
17668;SDS011;8953;48.694;8.940;2022-07-05T02:54:08;6.30;;;3.20;;
17668;SDS011;8953;48.694;8.940;2022-07-05T02:56:35;3.40;;;3.10;;
17668;SDS011;8953;48.694;8.940;2022-07-05T02:59:02;4.40;;;3.37;;
17668;SDS011;8953;48.694;8.940;2022-07-05T03:01:30;3.17;;;2.87;;
17668;SDS011;8953;48.694;8.940;2022-07-05T03:03:58;3.10;;;2.80;;
17668;SDS011;8953;48.694;8.940;2022-07-05T03:06:26;3.63;;;3.33;;
17668;SDS011;8953;48.694;8.940;2022-07-05T03:08:53;4.33;;;2.60;;
17668;SDS011;8953;48.694;8.940;2022-07-05T03:11:21;3.23;;;2.70;;
17668;SDS011;8953;48.694;8.940;2022-07-05T03:13:48;3.40;;;3.10;;
17668;SDS011;8953;48.694;8.940;2022-07-05T03:16:15;5.13;;;3.00;;
17668;SDS011;8953;48.694;8.940;2022-07-05T03:18:42;3.23;;;3.03;;
17668;SDS011;8953;48.694;8.940;2022-07-05T03:21:09;4.23;;;3.30;;
17668;SDS011;8953;48.694;8.940;2022-07-05T03:23:38;3.27;;;2.77;;
17668;SDS011;8953;48.694;8.940;2022-07-05T03:26:05;3.60;;;3.30;;
17668;SDS011;8953;48.694;8.940;2022-07-05T03:28:32;3.77;;;3.43;;
17668;SDS011;8953;48.694;8.940;2022-07-05T03:30:59;3.13;;;2.93;;
17668;SDS011;8953;48.694;8.940;2022-07-05T03:33:26;4.27;;;3.53;;
17668;SDS011;8953;48.694;8.940;2022-07-05T03:35:54;4.10;;;3.63;;
17668;SDS011;8953;48.694;8.940;2022-07-05T03:38:21;4.00;;;3.60;;
17668;SDS011;8953;48.694;8.940;2022-07-05T03:40:49;3.90;;;3.60;;
17668;SDS011;8953;48.694;8.940;2022-07-05T03:43:16;3.60;;;3.30;;
17668;SDS011;8953;48.694;8.940;2022-07-05T03:45:43;3.50;;;3.20;;
17668;SDS011;8953;48.694;8.940;2022-07-05T03:48:12;3.70;;;3.40;;
17668;SDS011;8953;48.694;8.940;2022-07-05T03:50:39;3.47;;;3.17;;
17668;SDS011;8953;48.694;8.940;2022-07-05T03:53:06;3.80;;;3.50;;
17668;SDS011;8953;48.694;8.940;2022-07-05T03:55:33;3.90;;;3.60;;
17668;SDS011;8953;48.694;8.940;2022-07-05T03:58:01;6.93;;;3.57;;
17668;SDS011;8953;48.694;8.940;2022-07-05T04:00:28;4.17;;;3.73;;
17668;SDS011;8953;48.694;8.940;2022-07-05T04:02:56;4.27;;;3.73;;
17668;SDS011;8953;48.694;8.940;2022-07-05T04:05:23;4.10;;;3.73;;
17668;SDS011;8953;48.694;8.940;2022-07-05T04:07:50;4.13;;;3.60;;
17668;SDS011;8953;48.694;8.940;2022-07-05T04:10:18;2.90;;;2.70;;
17668;SDS011;8953;48.694;8.940;2022-07-05T04:12:45;3.83;;;3.50;;
17668;SDS011;8953;48.694;8.940;2022-07-05T04:15:14;3.30;;;2.90;;
17668;SDS011;8953;48.694;8.940;2022-07-05T04:17:48;3.17;;;2.87;;
17668;SDS011;8953;48.694;8.940;2022-07-05T04:20:15;4.23;;;3.00;;
17668;SDS011;8953;48.694;8.940;2022-07-05T04:22:43;3.53;;;3.10;;
17668;SDS011;8953;48.694;8.940;2022-07-05T04:25:10;5.40;;;3.33;;
17668;SDS011;8953;48.694;8.940;2022-07-05T04:27:43;3.60;;;3.30;;
17668;SDS011;8953;48.694;8.940;2022-07-05T04:30:11;3.53;;;3.23;;
17668;SDS011;8953;48.694;8.940;2022-07-05T04:32:41;3.40;;;3.10;;
17668;SDS011;8953;48.694;8.940;2022-07-05T04:35:09;3.30;;;3.07;;
17668;SDS011;8953;48.694;8.940;2022-07-05T04:37:36;4.30;;;3.37;;
17668;SDS011;8953;48.694;8.940;2022-07-05T04:40:04;3.97;;;3.60;;
17668;SDS011;8953;48.694;8.940;2022-07-05T04:42:33;3.80;;;3.50;;
17668;SDS011;8953;48.694;8.940;2022-07-05T04:45:00;4.60;;;3.40;;
17668;SDS011;8953;48.694;8.940;2022-07-05T04:47:29;5.37;;;3.40;;
17668;SDS011;8953;48.694;8.940;2022-07-05T04:49:57;5.33;;;3.60;;
17668;SDS011;8953;48.694;8.940;2022-07-05T04:52:24;5.43;;;3.70;;
17668;SDS011;8953;48.694;8.940;2022-07-05T04:54:52;2.97;;;2.73;;
17668;SDS011;8953;48.694;8.940;2022-07-05T04:57:19;3.70;;;3.07;;
17668;SDS011;8953;48.694;8.940;2022-07-05T04:59:46;4.93;;;3.53;;
17668;SDS011;8953;48.694;8.940;2022-07-05T05:02:14;4.60;;;3.73;;
17668;SDS011;8953;48.694;8.940;2022-07-05T05:04:42;4.93;;;3.37;;
17668;SDS011;8953;48.694;8.940;2022-07-05T05:07:09;3.90;;;2.53;;
17668;SDS011;8953;48.694;8.940;2022-07-05T05:09:38;5.25;;;2.55;;
17668;SDS011;8953;48.694;8.940;2022-07-05T05:12:05;2.73;;;2.33;;
17668;SDS011;8953;48.694;8.940;2022-07-05T05:14:32;3.07;;;2.27;;
17668;SDS011;8953;48.694;8.940;2022-07-05T05:17:01;2.30;;;2.10;;
17668;SDS011;8953;48.694;8.940;2022-07-05T05:19:28;2.30;;;2.00;;
17668;SDS011;8953;48.694;8.940;2022-07-05T05:21:57;3.60;;;1.80;;
17668;SDS011;8953;48.694;8.940;2022-07-05T05:24:24;2.90;;;1.63;;
17668;SDS011;8953;48.694;8.940;2022-07-05T05:26:54;2.70;;;1.80;;
17668;SDS011;8953;48.694;8.940;2022-07-05T05:29:21;4.03;;;1.77;;
17668;SDS011;8953;48.694;8.940;2022-07-05T05:31:49;3.07;;;1.20;;
17668;SDS011;8953;48.694;8.940;2022-07-05T05:34:16;2.43;;;1.47;;
17668;SDS011;8953;48.694;8.940;2022-07-05T05:36:43;1.60;;;1.17;;
17668;SDS011;8953;48.694;8.940;2022-07-05T05:39:12;2.35;;;1.10;;
17668;SDS011;8953;48.694;8.940;2022-07-05T05:41:39;1.77;;;1.27;;
17668;SDS011;8953;48.694;8.940;2022-07-05T05:44:07;2.00;;;1.40;;
17668;SDS011;8953;48.694;8.940;2022-07-05T05:46:35;1.58;;;0.95;;
17668;SDS011;8953;48.694;8.940;2022-07-05T05:49:02;1.92;;;1.08;;
17668;SDS011;8953;48.694;8.940;2022-07-05T05:51:30;1.10;;;0.90;;
17668;SDS011;8953;48.694;8.940;2022-07-05T05:53:57;1.98;;;1.13;;
17668;SDS011;8953;48.694;8.940;2022-07-05T05:56:25;2.88;;;1.05;;
17668;SDS011;8953;48.694;8.940;2022-07-05T05:58:53;1.10;;;1.00;;
17668;SDS011;8953;48.694;8.940;2022-07-05T06:01:20;2.00;;;1.15;;
17668;SDS011;8953;48.694;8.940;2022-07-05T06:03:47;1.73;;;1.10;;
17668;SDS011;8953;48.694;8.940;2022-07-05T06:06:14;1.58;;;0.93;;
17668;SDS011;8953;48.694;8.940;2022-07-05T06:08:41;3.72;;;0.88;;
17668;SDS011;8953;48.694;8.940;2022-07-05T06:11:08;2.25;;;0.90;;
17668;SDS011;8953;48.694;8.940;2022-07-05T06:13:37;1.58;;;1.00;;
17668;SDS011;8953;48.694;8.940;2022-07-05T06:16:05;2.50;;;1.00;;
17668;SDS011;8953;48.694;8.940;2022-07-05T06:18:33;1.10;;;0.80;;
17668;SDS011;8953;48.694;8.940;2022-07-05T06:21:00;1.58;;;0.75;;
17668;SDS011;8953;48.694;8.940;2022-07-05T06:23:27;2.17;;;0.80;;
17668;SDS011;8953;48.694;8.940;2022-07-05T06:25:55;1.77;;;0.80;;
17668;SDS011;8953;48.694;8.940;2022-07-05T06:28:22;0.80;;;0.80;;
17668;SDS011;8953;48.694;8.940;2022-07-05T06:30:50;1.45;;;0.95;;
17668;SDS011;8953;48.694;8.940;2022-07-05T06:33:18;1.77;;;0.80;;
17668;SDS011;8953;48.694;8.940;2022-07-05T06:35:45;3.67;;;0.90;;
17668;SDS011;8953;48.694;8.940;2022-07-05T06:38:12;2.53;;;1.00;;
17668;SDS011;8953;48.694;8.940;2022-07-05T06:40:40;1.15;;;0.77;;
17668;SDS011;8953;48.694;8.940;2022-07-05T06:43:09;2.63;;;0.80;;
17668;SDS011;8953;48.694;8.940;2022-07-05T06:45:37;2.45;;;0.90;;
17668;SDS011;8953;48.694;8.940;2022-07-05T06:48:07;1.27;;;0.80;;
17668;SDS011;8953;48.694;8.940;2022-07-05T06:50:35;1.30;;;0.70;;
17668;SDS011;8953;48.694;8.940;2022-07-05T06:53:06;1.73;;;0.88;;
17668;SDS011;8953;48.694;8.940;2022-07-05T06:55:34;2.05;;;0.90;;
17668;SDS011;8953;48.694;8.940;2022-07-05T06:58:01;1.67;;;0.60;;
17668;SDS011;8953;48.694;8.940;2022-07-05T07:00:30;3.63;;;0.70;;
17668;SDS011;8953;48.694;8.940;2022-07-05T07:02:58;1.13;;;0.80;;
17668;SDS011;8953;48.694;8.940;2022-07-05T07:05:27;3.38;;;0.60;;
17668;SDS011;8953;48.694;8.940;2022-07-05T07:07:54;1.73;;;0.60;;
17668;SDS011;8953;48.694;8.940;2022-07-05T07:10:39;1.10;;;0.70;;
17668;SDS011;8953;48.694;8.940;2022-07-05T07:13:06;1.50;;;0.80;;
17668;SDS011;8953;48.694;8.940;2022-07-05T07:15:33;1.42;;;0.75;;
17668;SDS011;8953;48.694;8.940;2022-07-05T07:18:01;2.22;;;0.85;;
17668;SDS011;8953;48.694;8.940;2022-07-05T07:20:29;3.35;;;1.02;;
17668;SDS011;8953;48.694;8.940;2022-07-05T07:22:56;2.60;;;0.82;;
17668;SDS011;8953;48.694;8.940;2022-07-05T07:25:24;2.30;;;0.73;;
17668;SDS011;8953;48.694;8.940;2022-07-05T07:27:51;2.65;;;1.00;;
17668;SDS011;8953;48.694;8.940;2022-07-05T07:30:21;7.50;;;1.08;;
17668;SDS011;8953;48.694;8.940;2022-07-05T07:32:49;1.98;;;0.80;;
17668;SDS011;8953;48.694;8.940;2022-07-05T07:35:17;5.60;;;1.35;;
17668;SDS011;8953;48.694;8.940;2022-07-05T07:37:45;2.95;;;0.73;;
17668;SDS011;8953;48.694;8.940;2022-07-05T07:40:13;2.85;;;0.73;;
17668;SDS011;8953;48.694;8.940;2022-07-05T07:42:41;1.30;;;0.75;;
17668;SDS011;8953;48.694;8.940;2022-07-05T07:45:09;2.50;;;0.80;;
17668;SDS011;8953;48.694;8.940;2022-07-05T07:47:37;0.88;;;0.70;;
17668;SDS011;8953;48.694;8.940;2022-07-05T07:50:05;1.40;;;0.70;;
17668;SDS011;8953;48.694;8.940;2022-07-05T07:52:33;1.60;;;0.70;;
17668;SDS011;8953;48.694;8.940;2022-07-05T07:55:03;1.30;;;0.60;;
17668;SDS011;8953;48.694;8.940;2022-07-05T07:57:31;3.13;;;0.60;;
17668;SDS011;8953;48.694;8.940;2022-07-05T07:59:59;1.35;;;0.40;;
17668;SDS011;8953;48.694;8.940;2022-07-05T08:02:26;0.88;;;0.50;;
17668;SDS011;8953;48.694;8.940;2022-07-05T08:04:53;1.83;;;0.50;;
17668;SDS011;8953;48.694;8.940;2022-07-05T08:07:20;0.70;;;0.50;;
17668;SDS011;8953;48.694;8.940;2022-07-05T08:09:48;1.92;;;0.60;;
17668;SDS011;8953;48.694;8.940;2022-07-05T08:12:16;2.35;;;0.68;;
17668;SDS011;8953;48.694;8.940;2022-07-05T08:14:44;2.25;;;0.60;;
17668;SDS011;8953;48.694;8.940;2022-07-05T08:17:12;1.92;;;0.50;;
17668;SDS011;8953;48.694;8.940;2022-07-05T08:19:39;2.20;;;0.70;;
17668;SDS011;8953;48.694;8.940;2022-07-05T08:22:24;2.40;;;0.57;;
17668;SDS011;8953;48.694;8.940;2022-07-05T08:24:52;1.67;;;0.50;;
17668;SDS011;8953;48.694;8.940;2022-07-05T08:27:21;1.67;;;0.60;;
17668;SDS011;8953;48.694;8.940;2022-07-05T08:29:48;1.58;;;0.50;;
17668;SDS011;8953;48.694;8.940;2022-07-05T08:32:15;1.08;;;0.50;;
17668;SDS011;8953;48.694;8.940;2022-07-05T08:34:43;2.10;;;0.55;;
17668;SDS011;8953;48.694;8.940;2022-07-05T08:37:10;0.82;;;0.50;;
17668;SDS011;8953;48.694;8.940;2022-07-05T08:39:37;1.25;;;0.40;;
17668;SDS011;8953;48.694;8.940;2022-07-05T08:42:08;1.98;;;0.52;;
17668;SDS011;8953;48.694;8.940;2022-07-05T08:44:38;1.63;;;0.50;;
17668;SDS011;8953;48.694;8.940;2022-07-05T08:47:08;3.90;;;0.70;;
17668;SDS011;8953;48.694;8.940;2022-07-05T08:49:37;1.25;;;0.45;;
17668;SDS011;8953;48.694;8.940;2022-07-05T08:52:05;1.38;;;0.68;;
17668;SDS011;8953;48.694;8.940;2022-07-05T08:54:36;3.95;;;0.70;;
17668;SDS011;8953;48.694;8.940;2022-07-05T08:57:04;1.00;;;0.60;;
17668;SDS011;8953;48.694;8.940;2022-07-05T08:59:31;0.93;;;0.60;;
17668;SDS011;8953;48.694;8.940;2022-07-05T09:02:00;2.10;;;0.55;;
17668;SDS011;8953;48.694;8.940;2022-07-05T09:04:30;0.85;;;0.50;;
17668;SDS011;8953;48.694;8.940;2022-07-05T09:07:02;3.92;;;0.50;;
17668;SDS011;8953;48.694;8.940;2022-07-05T09:09:32;0.50;;;0.40;;
17668;SDS011;8953;48.694;8.940;2022-07-05T09:12:02;1.65;;;0.50;;
17668;SDS011;8953;48.694;8.940;2022-07-05T09:14:30;4.30;;;0.73;;
17668;SDS011;8953;48.694;8.940;2022-07-05T09:16:57;4.32;;;0.70;;
17668;SDS011;8953;48.694;8.940;2022-07-05T09:19:25;1.10;;;0.50;;
17668;SDS011;8953;48.694;8.940;2022-07-05T09:22:00;2.63;;;0.77;;
17668;SDS011;8953;48.694;8.940;2022-07-05T09:24:28;1.20;;;0.55;;
17668;SDS011;8953;48.694;8.940;2022-07-05T09:27:01;2.17;;;0.65;;
17668;SDS011;8953;48.694;8.940;2022-07-05T09:29:29;1.40;;;0.80;;
17668;SDS011;8953;48.694;8.940;2022-07-05T09:31:57;0.95;;;0.55;;
17668;SDS011;8953;48.694;8.940;2022-07-05T09:34:26;1.63;;;0.73;;
17668;SDS011;8953;48.694;8.940;2022-07-05T09:36:56;1.83;;;0.57;;
17668;SDS011;8953;48.694;8.940;2022-07-05T09:39:37;0.68;;;0.50;;
17668;SDS011;8953;48.694;8.940;2022-07-05T09:42:12;7.35;;;0.95;;
17668;SDS011;8953;48.694;8.940;2022-07-05T09:44:43;1.70;;;0.80;;
17668;SDS011;8953;48.694;8.940;2022-07-05T09:47:11;1.00;;;0.60;;
17668;SDS011;8953;48.694;8.940;2022-07-05T09:49:43;1.27;;;0.50;;
17668;SDS011;8953;48.694;8.940;2022-07-05T09:52:25;2.28;;;0.45;;
17668;SDS011;8953;48.694;8.940;2022-07-05T09:57:41;1.02;;;0.50;;
17668;SDS011;8953;48.694;8.940;2022-07-05T10:00:10;1.90;;;0.70;;
17668;SDS011;8953;48.694;8.940;2022-07-05T10:02:40;2.03;;;0.55;;
17668;SDS011;8953;48.694;8.940;2022-07-05T10:05:09;1.45;;;0.60;;
17668;SDS011;8953;48.694;8.940;2022-07-05T10:07:38;2.03;;;0.98;;
17668;SDS011;8953;48.694;8.940;2022-07-05T10:10:07;1.15;;;0.68;;
17668;SDS011;8953;48.694;8.940;2022-07-05T10:12:36;2.42;;;0.70;;
17668;SDS011;8953;48.694;8.940;2022-07-05T10:15:04;0.85;;;0.60;;
17668;SDS011;8953;48.694;8.940;2022-07-05T10:17:36;0.52;;;0.50;;
17668;SDS011;8953;48.694;8.940;2022-07-05T10:20:08;1.90;;;0.55;;
17668;SDS011;8953;48.694;8.940;2022-07-05T10:22:46;0.80;;;0.60;;
17668;SDS011;8953;48.694;8.940;2022-07-05T10:25:14;0.65;;;0.57;;
17668;SDS011;8953;48.694;8.940;2022-07-05T10:27:42;0.88;;;0.60;;
17668;SDS011;8953;48.694;8.940;2022-07-05T10:30:10;1.83;;;0.50;;
17668;SDS011;8953;48.694;8.940;2022-07-05T10:32:38;0.90;;;0.50;;
17668;SDS011;8953;48.694;8.940;2022-07-05T10:35:06;2.67;;;0.98;;
17668;SDS011;8953;48.694;8.940;2022-07-05T10:37:35;0.80;;;0.68;;
17668;SDS011;8953;48.694;8.940;2022-07-05T10:40:04;1.20;;;0.60;;
17668;SDS011;8953;48.694;8.940;2022-07-05T10:42:33;1.08;;;0.77;;
17668;SDS011;8953;48.694;8.940;2022-07-05T10:50:44;13.95;;;1.52;;
17668;SDS011;8953;48.694;8.940;2022-07-05T10:53:14;5.43;;;1.98;;
17668;SDS011;8953;48.694;8.940;2022-07-05T10:55:49;9.10;;;0.90;;
17668;SDS011;8953;48.694;8.940;2022-07-05T10:58:27;13.48;;;2.15;;
17668;SDS011;8953;48.694;8.940;2022-07-05T11:04:19;9.30;;;1.08;;
17668;SDS011;8953;48.694;8.940;2022-07-05T11:06:55;4.32;;;1.00;;
17668;SDS011;8953;48.694;8.940;2022-07-05T11:09:25;2.92;;;1.00;;
17668;SDS011;8953;48.694;8.940;2022-07-05T11:12:11;2.78;;;1.25;;
17668;SDS011;8953;48.694;8.940;2022-07-05T11:14:44;3.17;;;0.90;;
17668;SDS011;8953;48.694;8.940;2022-07-05T11:17:20;1.65;;;0.68;;
17668;SDS011;8953;48.694;8.940;2022-07-05T11:20:09;2.22;;;0.70;;
17668;SDS011;8953;48.694;8.940;2022-07-05T11:22:41;1.85;;;0.80;;
17668;SDS011;8953;48.694;8.940;2022-07-05T11:25:29;1.40;;;0.85;;
17668;SDS011;8953;48.694;8.940;2022-07-05T11:28:01;0.82;;;0.68;;
17668;SDS011;8953;48.694;8.940;2022-07-05T11:33:37;1.50;;;0.70;;
17668;SDS011;8953;48.694;8.940;2022-07-05T11:36:19;1.25;;;0.60;;
17668;SDS011;8953;48.694;8.940;2022-07-05T11:41:51;2.13;;;0.60;;
17668;SDS011;8953;48.694;8.940;2022-07-05T11:44:18;1.55;;;0.90;;
17668;SDS011;8953;48.694;8.940;2022-07-05T11:46:46;2.83;;;0.70;;
17668;SDS011;8953;48.694;8.940;2022-07-05T11:49:18;2.25;;;0.80;;
17668;SDS011;8953;48.694;8.940;2022-07-05T11:51:52;1.65;;;0.90;;
17668;SDS011;8953;48.694;8.940;2022-07-05T11:54:22;3.83;;;0.70;;
17668;SDS011;8953;48.694;8.940;2022-07-05T11:56:50;3.28;;;0.77;;
17668;SDS011;8953;48.694;8.940;2022-07-05T11:59:19;2.40;;;0.80;;
17668;SDS011;8953;48.694;8.940;2022-07-05T12:01:46;2.65;;;0.70;;
17668;SDS011;8953;48.694;8.940;2022-07-05T12:04:20;1.88;;;0.70;;
17668;SDS011;8953;48.694;8.940;2022-07-05T12:06:48;2.05;;;0.80;;
17668;SDS011;8953;48.694;8.940;2022-07-05T12:09:21;1.98;;;0.80;;
17668;SDS011;8953;48.694;8.940;2022-07-05T12:11:52;1.70;;;0.90;;
17668;SDS011;8953;48.694;8.940;2022-07-05T12:14:45;1.70;;;0.95;;
17668;SDS011;8953;48.694;8.940;2022-07-05T12:17:15;3.38;;;0.80;;
17668;SDS011;8953;48.694;8.940;2022-07-05T12:19:44;0.70;;;0.70;;
17668;SDS011;8953;48.694;8.940;2022-07-05T12:22:11;1.88;;;0.90;;
17668;SDS011;8953;48.694;8.940;2022-07-05T12:24:39;2.53;;;0.90;;
17668;SDS011;8953;48.694;8.940;2022-07-05T12:27:08;4.97;;;1.08;;
17668;SDS011;8953;48.694;8.940;2022-07-05T12:29:36;2.63;;;1.00;;
17668;SDS011;8953;48.694;8.940;2022-07-05T12:32:04;3.35;;;1.10;;
17668;SDS011;8953;48.694;8.940;2022-07-05T12:34:34;3.63;;;0.85;;
17668;SDS011;8953;48.694;8.940;2022-07-05T12:37:01;3.45;;;1.08;;
17668;SDS011;8953;48.694;8.940;2022-07-05T12:39:30;2.08;;;0.63;;
17668;SDS011;8953;48.694;8.940;2022-07-05T12:41:57;2.63;;;0.90;;
17668;SDS011;8953;48.694;8.940;2022-07-05T12:44:26;2.53;;;0.95;;
17668;SDS011;8953;48.694;8.940;2022-07-05T12:47:02;3.65;;;0.90;;
17668;SDS011;8953;48.694;8.940;2022-07-05T12:49:30;1.00;;;0.80;;
17668;SDS011;8953;48.694;8.940;2022-07-05T12:52:02;1.20;;;0.70;;
17668;SDS011;8953;48.694;8.940;2022-07-05T12:54:30;2.38;;;0.90;;
17668;SDS011;8953;48.694;8.940;2022-07-05T12:57:30;4.28;;;1.00;;
17668;SDS011;8953;48.694;8.940;2022-07-05T13:00:16;9.30;;;1.20;;
17668;SDS011;8953;48.694;8.940;2022-07-05T13:02:45;1.35;;;0.90;;
17668;SDS011;8953;48.694;8.940;2022-07-05T13:05:19;3.22;;;0.90;;
17668;SDS011;8953;48.694;8.940;2022-07-05T13:07:47;2.13;;;0.82;;
17668;SDS011;8953;48.694;8.940;2022-07-05T13:10:17;1.58;;;0.73;;
17668;SDS011;8953;48.694;8.940;2022-07-05T13:12:45;1.73;;;0.90;;
17668;SDS011;8953;48.694;8.940;2022-07-05T13:15:12;2.03;;;0.80;;
17668;SDS011;8953;48.694;8.940;2022-07-05T13:17:42;2.80;;;1.00;;
17668;SDS011;8953;48.694;8.940;2022-07-05T13:20:09;1.42;;;0.90;;
17668;SDS011;8953;48.694;8.940;2022-07-05T13:22:39;3.00;;;0.75;;
17668;SDS011;8953;48.694;8.940;2022-07-05T13:25:06;1.38;;;0.88;;
17668;SDS011;8953;48.694;8.940;2022-07-05T13:27:36;2.25;;;1.00;;
17668;SDS011;8953;48.694;8.940;2022-07-05T13:30:05;1.98;;;1.10;;
17668;SDS011;8953;48.694;8.940;2022-07-05T13:32:33;2.35;;;0.77;;
17668;SDS011;8953;48.694;8.940;2022-07-05T13:35:02;4.25;;;0.90;;
17668;SDS011;8953;48.694;8.940;2022-07-05T13:37:30;1.92;;;0.85;;
17668;SDS011;8953;48.694;8.940;2022-07-05T13:39:58;1.00;;;0.73;;
17668;SDS011;8953;48.694;8.940;2022-07-05T13:42:25;2.35;;;1.00;;
17668;SDS011;8953;48.694;8.940;2022-07-05T13:44:53;1.63;;;0.80;;
17668;SDS011;8953;48.694;8.940;2022-07-05T13:47:20;0.80;;;0.80;;
17668;SDS011;8953;48.694;8.940;2022-07-05T13:49:48;4.10;;;0.80;;
17668;SDS011;8953;48.694;8.940;2022-07-05T13:52:41;2.75;;;1.00;;
17668;SDS011;8953;48.694;8.940;2022-07-05T13:55:09;1.80;;;0.77;;
17668;SDS011;8953;48.694;8.940;2022-07-05T13:57:37;1.50;;;0.88;;
17668;SDS011;8953;48.694;8.940;2022-07-05T14:00:05;0.93;;;0.60;;
17668;SDS011;8953;48.694;8.940;2022-07-05T14:02:34;1.10;;;0.70;;
17668;SDS011;8953;48.694;8.940;2022-07-05T14:05:01;1.70;;;0.60;;
17668;SDS011;8953;48.694;8.940;2022-07-05T14:07:28;3.80;;;1.00;;
17668;SDS011;8953;48.694;8.940;2022-07-05T14:09:57;1.27;;;0.85;;
17668;SDS011;8953;48.694;8.940;2022-07-05T14:12:25;1.92;;;0.82;;
17668;SDS011;8953;48.694;8.940;2022-07-05T14:14:52;3.03;;;1.00;;
17668;SDS011;8953;48.694;8.940;2022-07-05T14:17:19;2.72;;;1.00;;
17668;SDS011;8953;48.694;8.940;2022-07-05T14:19:46;1.77;;;0.82;;
17668;SDS011;8953;48.694;8.940;2022-07-05T14:22:13;3.92;;;1.00;;
17668;SDS011;8953;48.694;8.940;2022-07-05T14:24:41;2.50;;;0.80;;
17668;SDS011;8953;48.694;8.940;2022-07-05T14:27:09;3.13;;;0.90;;
17668;SDS011;8953;48.694;8.940;2022-07-05T14:29:36;1.77;;;0.75;;
17668;SDS011;8953;48.694;8.940;2022-07-05T14:32:04;1.08;;;0.77;;
17668;SDS011;8953;48.694;8.940;2022-07-05T14:34:32;1.45;;;1.00;;
17668;SDS011;8953;48.694;8.940;2022-07-05T14:36:59;2.20;;;0.90;;
17668;SDS011;8953;48.694;8.940;2022-07-05T14:39:26;1.33;;;0.85;;
17668;SDS011;8953;48.694;8.940;2022-07-05T14:41:53;4.60;;;1.05;;
17668;SDS011;8953;48.694;8.940;2022-07-05T14:44:22;2.28;;;0.85;;
17668;SDS011;8953;48.694;8.940;2022-07-05T14:46:49;0.88;;;0.75;;
17668;SDS011;8953;48.694;8.940;2022-07-05T14:49:16;2.45;;;0.70;;
17668;SDS011;8953;48.694;8.940;2022-07-05T14:51:44;1.92;;;0.80;;
17668;SDS011;8953;48.694;8.940;2022-07-05T14:54:11;1.10;;;0.70;;
17668;SDS011;8953;48.694;8.940;2022-07-05T14:56:39;1.08;;;0.70;;
17668;SDS011;8953;48.694;8.940;2022-07-05T14:59:07;2.03;;;0.90;;
17668;SDS011;8953;48.694;8.940;2022-07-05T15:01:35;2.58;;;0.77;;
17668;SDS011;8953;48.694;8.940;2022-07-05T15:04:05;1.23;;;0.70;;
17668;SDS011;8953;48.694;8.940;2022-07-05T15:06:32;3.70;;;1.00;;
17668;SDS011;8953;48.694;8.940;2022-07-05T15:09:02;1.27;;;0.82;;
17668;SDS011;8953;48.694;8.940;2022-07-05T15:11:30;2.78;;;0.80;;
17668;SDS011;8953;48.694;8.940;2022-07-05T15:13:57;1.73;;;0.80;;
17668;SDS011;8953;48.694;8.940;2022-07-05T15:16:26;1.40;;;0.70;;
17668;SDS011;8953;48.694;8.940;2022-07-05T15:18:54;3.88;;;0.82;;
17668;SDS011;8953;48.694;8.940;2022-07-05T15:21:22;2.25;;;0.70;;
17668;SDS011;8953;48.694;8.940;2022-07-05T15:23:49;2.30;;;0.80;;
17668;SDS011;8953;48.694;8.940;2022-07-05T15:26:17;1.45;;;0.75;;
17668;SDS011;8953;48.694;8.940;2022-07-05T15:28:44;2.55;;;0.90;;